Eleni K — SXTG — position and weather

sailwx.info

Track history (hours):
 
Tides and Currents Weather Stations Pressure Air Temp Water Temp Dewpoint Dewpoint Depression Visibility Wind Speed Wind Dir Waves Ship Positions

Eleni K

Last reported at 2017-Nov-13 01:58 UTC. Time now 2017-Nov-20 00:33 UTC.
Position N 38°13' E 022°37'.

Length 75 m; draft 5.8 m.

Type: Cargo ship. MMSI: 240652000.

Date/timePositionNaut miles runAvg speedWind from/ knotsBaromVisibWave heightAir tempDewpointWater temp
2017-Nov-13 01:58N 38°13' E 022°37'  
2017-Nov-10 01:52N 38°04' E 022°43'3 8.6
2017-Nov-10 01:30N 38°02' E 022°47'5 8.7
2017-Nov-10 00:59N 38°00' E 022°52'4 8.7
2017-Nov-10 00:30N 37°58' E 022°56'4 5.2
2017-Nov-09 23:45N 37°55' E 022°60'1 4.1
2017-Nov-09 23:31N 37°55' E 023°01'4 7.7
2017-Nov-09 23:01N 37°53' E 023°05'4 8.6
2017-Nov-09 22:30N 37°51' E 023°10'5 9.0
2017-Nov-09 22:01N 37°47' E 023°13'5 9.1
2017-Nov-09 21:30N 37°44' E 023°16'4 8.7
2017-Nov-09 21:00N 37°40' E 023°19'5 9.1
2017-Nov-09 20:31N 37°39' E 023°25'5 9.0
2017-Nov-09 20:01N 37°38' E 023°30'5 9.0
2017-Nov-09 19:30N 37°35' E 023°35'5 9.1
2017-Nov-09 19:01N 37°33' E 023°40'  
2017-Nov-06 23:14N 37°33' E 023°35'2 8.8
2017-Nov-06 23:00N 37°35' E 023°33'4 8.7
2017-Nov-06 22:30N 37°38' E 023°30'4 8.9
2017-Nov-06 22:00N 37°39' E 023°24'4 8.9
2017-Nov-06 21:30N 37°40' E 023°19'4 7.6
2017-Nov-06 21:00N 37°43' E 023°17'4 8.8
2017-Nov-06 20:30N 37°47' E 023°14'  
2017-Nov-03 14:46N 38°12' E 022°43'10 8.4
2017-Nov-03 13:33N 38°11' E 022°56'0 8.6
2017-Nov-03 13:30N 38°11' E 022°56'  
Track history (hours):
 
Tides and Currents Weather Stations Pressure Air Temp Water Temp Dewpoint Dewpoint Depression Visibility Wind Speed Wind Dir Waves Ship Positions

Eleni K

Last reported at 2017-Nov-13 01:58 UTC. Time now 2017-Nov-20 00:33 UTC.
Position N 38°13' E 022°37'.

Length 75 m; draft 5.8 m.

Type: Cargo ship. MMSI: 240652000.

Date/timePositionNaut miles runAvg speedWind from/ knotsBaromVisibWave heightAir tempDewpointWater temp
2017-Nov-13 01:58N 38°13' E 022°37'  
2017-Nov-10 01:52N 38°04' E 022°43'3 8.6
2017-Nov-10 01:30N 38°02' E 022°47'5 8.7
2017-Nov-10 00:59N 38°00' E 022°52'4 8.7
2017-Nov-10 00:30N 37°58' E 022°56'4 5.2
2017-Nov-09 23:45N 37°55' E 022°60'1 4.1
2017-Nov-09 23:31N 37°55' E 023°01'4 7.7
2017-Nov-09 23:01N 37°53' E 023°05'4 8.6
2017-Nov-09 22:30N 37°51' E 023°10'5 9.0
2017-Nov-09 22:01N 37°47' E 023°13'5 9.1
2017-Nov-09 21:30N 37°44' E 023°16'4 8.7
2017-Nov-09 21:00N 37°40' E 023°19'5 9.1
2017-Nov-09 20:31N 37°39' E 023°25'5 9.0
2017-Nov-09 20:01N 37°38' E 023°30'5 9.0
2017-Nov-09 19:30N 37°35' E 023°35'5 9.1
2017-Nov-09 19:01N 37°33' E 023°40'  
2017-Nov-06 23:14N 37°33' E 023°35'2 8.8
2017-Nov-06 23:00N 37°35' E 023°33'4 8.7
2017-Nov-06 22:30N 37°38' E 023°30'4 8.9
2017-Nov-06 22:00N 37°39' E 023°24'4 8.9
2017-Nov-06 21:30N 37°40' E 023°19'4 7.6
2017-Nov-06 21:00N 37°43' E 023°17'4 8.8
2017-Nov-06 20:30N 37°47' E 023°14'  
2017-Nov-03 14:46N 38°12' E 022°43'10 8.4
2017-Nov-03 13:33N 38°11' E 022°56'0 8.6
2017-Nov-03 13:30N 38°11' E 022°56'  

Dump ship's entire track history